sensor_id;sensor_type;location;lat;lon;timestamp;P1;durP1;ratioP1;P2;durP2;ratioP2
42334;SDS011;27986;42.700;24.178;2022-07-23T00:01:33;8.52;;;3.95;;
42334;SDS011;27986;42.700;24.178;2022-07-23T00:03:58;12.18;;;4.53;;
42334;SDS011;27986;42.700;24.178;2022-07-23T00:06:24;7.88;;;4.22;;
42334;SDS011;27986;42.700;24.178;2022-07-23T00:08:50;11.73;;;4.32;;
42334;SDS011;27986;42.700;24.178;2022-07-23T00:11:16;12.50;;;4.60;;
42334;SDS011;27986;42.700;24.178;2022-07-23T00:13:42;8.00;;;4.38;;
42334;SDS011;27986;42.700;24.178;2022-07-23T00:16:08;11.35;;;4.82;;
42334;SDS011;27986;42.700;24.178;2022-07-23T00:18:34;10.50;;;4.65;;
42334;SDS011;27986;42.700;24.178;2022-07-23T00:20:59;12.35;;;4.95;;
42334;SDS011;27986;42.700;24.178;2022-07-23T00:23:25;9.93;;;4.25;;
42334;SDS011;27986;42.700;24.178;2022-07-23T00:25:51;10.52;;;4.55;;
42334;SDS011;27986;42.700;24.178;2022-07-23T00:28:17;9.68;;;4.70;;
42334;SDS011;27986;42.700;24.178;2022-07-23T00:30:46;11.25;;;4.80;;
42334;SDS011;27986;42.700;24.178;2022-07-23T00:33:12;12.90;;;4.85;;
42334;SDS011;27986;42.700;24.178;2022-07-23T00:35:38;9.60;;;4.68;;
42334;SDS011;27986;42.700;24.178;2022-07-23T00:38:06;9.13;;;4.47;;
42334;SDS011;27986;42.700;24.178;2022-07-23T00:40:32;11.25;;;4.45;;
42334;SDS011;27986;42.700;24.178;2022-07-23T00:42:58;12.10;;;4.88;;
42334;SDS011;27986;42.700;24.178;2022-07-23T00:45:24;6.93;;;4.15;;
42334;SDS011;27986;42.700;24.178;2022-07-23T00:47:50;10.57;;;4.90;;
42334;SDS011;27986;42.700;24.178;2022-07-23T00:50:15;13.70;;;4.90;;
42334;SDS011;27986;42.700;24.178;2022-07-23T00:52:41;10.80;;;5.50;;
42334;SDS011;27986;42.700;24.178;2022-07-23T00:55:08;7.07;;;4.18;;
42334;SDS011;27986;42.700;24.178;2022-07-23T00:57:35;8.05;;;4.53;;
42334;SDS011;27986;42.700;24.178;2022-07-23T01:00:01;10.93;;;4.70;;
42334;SDS011;27986;42.700;24.178;2022-07-23T01:02:28;12.30;;;4.70;;
42334;SDS011;27986;42.700;24.178;2022-07-23T01:04:54;8.57;;;4.40;;
42334;SDS011;27986;42.700;24.178;2022-07-23T01:07:19;9.93;;;4.90;;
42334;SDS011;27986;42.700;24.178;2022-07-23T01:09:45;13.95;;;5.60;;
42334;SDS011;27986;42.700;24.178;2022-07-23T01:12:11;15.48;;;5.15;;
42334;SDS011;27986;42.700;24.178;2022-07-23T01:14:37;11.77;;;4.70;;
42334;SDS011;27986;42.700;24.178;2022-07-23T01:17:03;7.35;;;4.50;;
42334;SDS011;27986;42.700;24.178;2022-07-23T01:19:29;9.05;;;5.00;;
42334;SDS011;27986;42.700;24.178;2022-07-23T01:21:55;12.75;;;4.50;;
42334;SDS011;27986;42.700;24.178;2022-07-23T01:24:23;8.75;;;4.35;;
42334;SDS011;27986;42.700;24.178;2022-07-23T01:26:48;16.95;;;4.50;;
42334;SDS011;27986;42.700;24.178;2022-07-23T01:29:15;9.93;;;4.55;;
42334;SDS011;27986;42.700;24.178;2022-07-23T01:31:41;9.20;;;4.65;;
42334;SDS011;27986;42.700;24.178;2022-07-23T01:34:07;12.55;;;4.55;;
42334;SDS011;27986;42.700;24.178;2022-07-23T01:36:33;7.72;;;4.75;;
42334;SDS011;27986;42.700;24.178;2022-07-23T01:38:59;8.57;;;4.20;;
42334;SDS011;27986;42.700;24.178;2022-07-23T01:41:25;8.35;;;4.65;;
42334;SDS011;27986;42.700;24.178;2022-07-23T01:43:51;8.95;;;4.95;;
42334;SDS011;27986;42.700;24.178;2022-07-23T01:46:16;13.27;;;4.75;;
42334;SDS011;27986;42.700;24.178;2022-07-23T01:48:42;11.60;;;4.63;;
42334;SDS011;27986;42.700;24.178;2022-07-23T01:51:07;10.68;;;4.35;;
42334;SDS011;27986;42.700;24.178;2022-07-23T01:53:33;11.40;;;4.75;;
42334;SDS011;27986;42.700;24.178;2022-07-23T01:55:59;9.75;;;4.93;;
42334;SDS011;27986;42.700;24.178;2022-07-23T01:58:25;11.88;;;4.63;;
42334;SDS011;27986;42.700;24.178;2022-07-23T02:00:51;10.45;;;5.05;;
42334;SDS011;27986;42.700;24.178;2022-07-23T02:03:17;12.82;;;4.57;;
42334;SDS011;27986;42.700;24.178;2022-07-23T02:05:43;9.85;;;5.10;;
42334;SDS011;27986;42.700;24.178;2022-07-23T02:08:08;7.88;;;4.30;;
42334;SDS011;27986;42.700;24.178;2022-07-23T02:10:33;10.63;;;4.70;;
42334;SDS011;27986;42.700;24.178;2022-07-23T02:12:59;10.38;;;4.65;;
42334;SDS011;27986;42.700;24.178;2022-07-23T02:15:24;10.40;;;4.60;;
42334;SDS011;27986;42.700;24.178;2022-07-23T02:17:50;9.75;;;4.88;;
42334;SDS011;27986;42.700;24.178;2022-07-23T02:20:15;18.33;;;5.25;;
42334;SDS011;27986;42.700;24.178;2022-07-23T02:22:41;9.98;;;5.13;;
42334;SDS011;27986;42.700;24.178;2022-07-23T02:25:07;7.90;;;4.32;;
42334;SDS011;27986;42.700;24.178;2022-07-23T02:27:33;9.48;;;4.85;;
42334;SDS011;27986;42.700;24.178;2022-07-23T02:29:59;9.73;;;4.80;;
42334;SDS011;27986;42.700;24.178;2022-07-23T02:32:25;11.45;;;5.35;;
42334;SDS011;27986;42.700;24.178;2022-07-23T02:34:50;10.43;;;4.47;;
42334;SDS011;27986;42.700;24.178;2022-07-23T02:37:16;12.63;;;5.13;;
42334;SDS011;27986;42.700;24.178;2022-07-23T02:39:42;8.73;;;4.40;;
42334;SDS011;27986;42.700;24.178;2022-07-23T02:42:08;8.32;;;4.43;;
42334;SDS011;27986;42.700;24.178;2022-07-23T02:44:33;13.15;;;6.10;;
42334;SDS011;27986;42.700;24.178;2022-07-23T02:46:59;9.57;;;4.80;;
42334;SDS011;27986;42.700;24.178;2022-07-23T02:49:25;12.95;;;4.93;;
42334;SDS011;27986;42.700;24.178;2022-07-23T02:51:50;10.45;;;4.43;;
42334;SDS011;27986;42.700;24.178;2022-07-23T02:54:16;12.02;;;4.57;;
42334;SDS011;27986;42.700;24.178;2022-07-23T02:56:42;11.18;;;4.85;;
42334;SDS011;27986;42.700;24.178;2022-07-23T02:59:07;13.07;;;4.90;;
42334;SDS011;27986;42.700;24.178;2022-07-23T03:01:33;9.52;;;5.07;;
42334;SDS011;27986;42.700;24.178;2022-07-23T03:03:58;10.75;;;5.25;;
42334;SDS011;27986;42.700;24.178;2022-07-23T03:06:24;8.15;;;4.75;;
42334;SDS011;27986;42.700;24.178;2022-07-23T03:08:49;15.60;;;5.13;;
42334;SDS011;27986;42.700;24.178;2022-07-23T03:11:15;8.10;;;4.18;;
42334;SDS011;27986;42.700;24.178;2022-07-23T03:13:41;8.63;;;5.38;;
42334;SDS011;27986;42.700;24.178;2022-07-23T03:16:07;13.52;;;4.45;;
42334;SDS011;27986;42.700;24.178;2022-07-23T03:18:32;9.45;;;4.40;;
42334;SDS011;27986;42.700;24.178;2022-07-23T03:20:58;9.07;;;4.85;;
42334;SDS011;27986;42.700;24.178;2022-07-23T03:23:24;12.48;;;4.85;;
42334;SDS011;27986;42.700;24.178;2022-07-23T03:25:50;11.73;;;4.97;;
42334;SDS011;27986;42.700;24.178;2022-07-23T03:28:16;11.30;;;4.95;;
42334;SDS011;27986;42.700;24.178;2022-07-23T03:30:42;16.20;;;4.97;;
42334;SDS011;27986;42.700;24.178;2022-07-23T03:33:10;15.90;;;4.85;;
42334;SDS011;27986;42.700;24.178;2022-07-23T03:35:35;14.15;;;5.43;;
42334;SDS011;27986;42.700;24.178;2022-07-23T03:38:01;12.57;;;5.18;;
42334;SDS011;27986;42.700;24.178;2022-07-23T03:40:26;8.05;;;4.60;;
42334;SDS011;27986;42.700;24.178;2022-07-23T03:42:52;16.65;;;4.90;;
42334;SDS011;27986;42.700;24.178;2022-07-23T03:45:17;12.93;;;5.18;;
42334;SDS011;27986;42.700;24.178;2022-07-23T03:47:42;11.13;;;5.00;;
42334;SDS011;27986;42.700;24.178;2022-07-23T03:50:09;12.13;;;5.07;;
42334;SDS011;27986;42.700;24.178;2022-07-23T03:52:35;11.18;;;5.40;;
42334;SDS011;27986;42.700;24.178;2022-07-23T03:55:01;8.60;;;4.93;;
42334;SDS011;27986;42.700;24.178;2022-07-23T03:57:27;11.95;;;5.15;;
42334;SDS011;27986;42.700;24.178;2022-07-23T03:59:52;14.55;;;4.97;;
42334;SDS011;27986;42.700;24.178;2022-07-23T04:02:18;9.10;;;5.00;;
42334;SDS011;27986;42.700;24.178;2022-07-23T04:04:43;14.05;;;4.90;;
42334;SDS011;27986;42.700;24.178;2022-07-23T04:07:09;10.30;;;5.20;;
42334;SDS011;27986;42.700;24.178;2022-07-23T04:09:34;13.23;;;5.25;;
42334;SDS011;27986;42.700;24.178;2022-07-23T04:12:00;13.25;;;5.30;;
42334;SDS011;27986;42.700;24.178;2022-07-23T04:14:26;15.00;;;4.68;;
42334;SDS011;27986;42.700;24.178;2022-07-23T04:16:51;15.85;;;5.78;;
42334;SDS011;27986;42.700;24.178;2022-07-23T04:19:17;13.65;;;5.10;;
42334;SDS011;27986;42.700;24.178;2022-07-23T04:21:42;13.85;;;5.53;;
42334;SDS011;27986;42.700;24.178;2022-07-23T04:24:08;15.85;;;6.00;;
42334;SDS011;27986;42.700;24.178;2022-07-23T04:26:33;8.80;;;5.53;;
42334;SDS011;27986;42.700;24.178;2022-07-23T04:28:59;14.30;;;5.43;;
42334;SDS011;27986;42.700;24.178;2022-07-23T04:31:24;11.80;;;5.32;;
42334;SDS011;27986;42.700;24.178;2022-07-23T04:33:49;12.50;;;5.30;;
42334;SDS011;27986;42.700;24.178;2022-07-23T04:36:15;11.15;;;4.93;;
42334;SDS011;27986;42.700;24.178;2022-07-23T04:38:40;11.05;;;5.13;;
42334;SDS011;27986;42.700;24.178;2022-07-23T04:41:06;11.32;;;4.60;;
42334;SDS011;27986;42.700;24.178;2022-07-23T04:43:31;12.45;;;4.68;;
42334;SDS011;27986;42.700;24.178;2022-07-23T04:45:57;13.27;;;5.28;;
42334;SDS011;27986;42.700;24.178;2022-07-23T04:48:22;14.18;;;5.68;;
42334;SDS011;27986;42.700;24.178;2022-07-23T04:50:48;15.13;;;6.15;;
42334;SDS011;27986;42.700;24.178;2022-07-23T04:53:13;11.40;;;5.45;;
42334;SDS011;27986;42.700;24.178;2022-07-23T04:55:39;15.43;;;5.18;;
42334;SDS011;27986;42.700;24.178;2022-07-23T04:58:04;10.02;;;5.10;;
42334;SDS011;27986;42.700;24.178;2022-07-23T05:00:30;10.43;;;4.72;;
42334;SDS011;27986;42.700;24.178;2022-07-23T05:02:55;12.40;;;4.78;;
42334;SDS011;27986;42.700;24.178;2022-07-23T05:05:21;11.65;;;4.53;;
42334;SDS011;27986;42.700;24.178;2022-07-23T05:07:46;13.02;;;5.22;;
42334;SDS011;27986;42.700;24.178;2022-07-23T05:10:12;9.63;;;5.18;;
42334;SDS011;27986;42.700;24.178;2022-07-23T05:12:37;16.38;;;5.57;;
42334;SDS011;27986;42.700;24.178;2022-07-23T05:15:03;10.65;;;5.38;;
42334;SDS011;27986;42.700;24.178;2022-07-23T05:17:29;9.52;;;4.55;;
42334;SDS011;27986;42.700;24.178;2022-07-23T05:19:54;9.50;;;4.68;;
42334;SDS011;27986;42.700;24.178;2022-07-23T05:22:20;11.52;;;5.13;;
42334;SDS011;27986;42.700;24.178;2022-07-23T05:24:45;14.50;;;4.82;;
42334;SDS011;27986;42.700;24.178;2022-07-23T05:27:11;12.65;;;5.18;;
42334;SDS011;27986;42.700;24.178;2022-07-23T05:29:36;11.27;;;5.07;;
42334;SDS011;27986;42.700;24.178;2022-07-23T05:32:01;10.38;;;5.68;;
42334;SDS011;27986;42.700;24.178;2022-07-23T05:34:27;13.30;;;5.93;;
42334;SDS011;27986;42.700;24.178;2022-07-23T05:36:52;14.75;;;5.90;;
42334;SDS011;27986;42.700;24.178;2022-07-23T05:39:18;14.98;;;6.70;;
42334;SDS011;27986;42.700;24.178;2022-07-23T05:41:43;15.18;;;7.22;;
42334;SDS011;27986;42.700;24.178;2022-07-23T05:44:09;14.05;;;6.55;;
42334;SDS011;27986;42.700;24.178;2022-07-23T05:46:35;13.23;;;7.00;;
42334;SDS011;27986;42.700;24.178;2022-07-23T05:49:00;17.25;;;6.40;;
42334;SDS011;27986;42.700;24.178;2022-07-23T05:51:25;16.15;;;5.72;;
42334;SDS011;27986;42.700;24.178;2022-07-23T05:53:51;14.15;;;5.65;;
42334;SDS011;27986;42.700;24.178;2022-07-23T05:56:17;10.48;;;6.97;;
42334;SDS011;27986;42.700;24.178;2022-07-23T05:58:43;14.30;;;7.15;;
42334;SDS011;27986;42.700;24.178;2022-07-23T06:01:09;19.17;;;6.53;;
42334;SDS011;27986;42.700;24.178;2022-07-23T06:03:36;23.08;;;7.22;;
42334;SDS011;27986;42.700;24.178;2022-07-23T06:06:02;12.63;;;6.53;;
42334;SDS011;27986;42.700;24.178;2022-07-23T06:08:28;18.02;;;6.95;;
42334;SDS011;27986;42.700;24.178;2022-07-23T06:14:22;15.80;;;6.45;;
42334;SDS011;27986;42.700;24.178;2022-07-23T06:27:25;18.95;;;6.63;;
